createdAt,value
2022-12-17T00:00:51.593Z,101627.00
2022-12-17T00:03:37.691Z,101631.38
2022-12-17T00:06:22.977Z,101636.69
2022-12-17T00:09:08.223Z,101635.88
2022-12-17T00:11:53.860Z,101637.66
2022-12-17T00:14:41.288Z,101648.91
2022-12-17T00:17:26.583Z,101658.50
2022-12-17T00:20:11.843Z,101665.34
2022-12-17T00:22:57.047Z,101669.66
2022-12-17T00:25:44.501Z,101669.53
2022-12-17T00:28:31.419Z,101674.97
2022-12-17T00:31:17.510Z,101658.50
2022-12-17T00:34:03.338Z,101681.13
2022-12-17T00:36:48.392Z,101682.94
2022-12-17T00:39:33.559Z,101685.44
2022-12-17T00:42:18.747Z,101691.56
2022-12-17T00:45:04.054Z,101689.75
2022-12-17T00:47:48.990Z,101693.19
2022-12-17T00:50:34.826Z,101698.41
2022-12-17T00:53:20.863Z,101701.81
2022-12-17T00:56:05.865Z,101698.19
2022-12-17T00:58:51.767Z,101707.00
2022-12-17T01:01:37.263Z,101706.22
2022-12-17T01:04:23.302Z,101707.19
2022-12-17T01:07:08.665Z,101706.38
2022-12-17T01:09:53.919Z,101709.88
2022-12-17T01:12:39.306Z,101709.88
2022-12-17T01:15:25.646Z,101712.59
2022-12-17T01:18:10.977Z,101714.34
2022-12-17T01:21:10.192Z,101719.56
2022-12-17T01:23:55.315Z,101716.91
2022-12-17T01:26:41.368Z,101723.06
2022-12-17T01:29:26.746Z,101719.66
2022-12-17T01:32:12.011Z,101724.97
2022-12-17T01:34:57.192Z,101733.75
2022-12-17T01:37:42.249Z,101736.38
2022-12-17T01:40:42.846Z,101738.16
2022-12-17T01:43:31.499Z,101740.78
2022-12-17T01:46:17.439Z,101742.59
2022-12-17T01:49:06.313Z,101743.47
2022-12-17T01:51:52.575Z,101742.59
2022-12-17T01:54:38.265Z,101754.81
2022-12-17T01:57:25.594Z,101752.19
2022-12-17T02:00:26.817Z,101753.16
2022-12-17T02:03:12.587Z,101754.88
2022-12-17T02:06:25.249Z,101749.75
2022-12-17T02:09:34.584Z,101753.97
2022-12-17T02:12:34.398Z,101759.19
2022-12-17T02:15:50.749Z,101767.00
2022-12-17T02:18:48.935Z,101755.59
2022-12-17T02:21:34.114Z,101762.63
2022-12-17T02:24:52.868Z,101758.22
2022-12-17T02:27:38.700Z,101768.63
2022-12-17T02:30:26.429Z,101758.22
2022-12-17T02:33:13.048Z,101756.56
2022-12-17T02:36:03.795Z,101761.88
2022-12-17T02:38:50.709Z,101767.09
2022-12-17T02:41:43.036Z,101763.59
2022-12-17T02:44:31.920Z,101768.81
2022-12-17T02:47:18.631Z,101772.22
2022-12-17T02:50:03.863Z,101773.22
2022-12-17T02:52:51.854Z,101768.81
2022-12-17T02:55:37.077Z,101766.19
2022-12-17T02:58:22.302Z,101774.00
2022-12-17T03:01:07.610Z,101776.63
2022-12-17T03:03:52.801Z,101774.81
2022-12-17T03:06:37.967Z,101779.22
2022-12-17T03:09:23.047Z,101781.03
2022-12-17T03:12:08.238Z,101776.63
2022-12-17T03:14:53.554Z,101782.84
2022-12-17T03:17:38.843Z,101780.22
2022-12-17T03:20:25.076Z,101780.22
2022-12-17T03:23:10.159Z,101784.59
2022-12-17T03:25:55.341Z,101790.81
2022-12-17T03:28:40.409Z,101787.22
2022-12-17T03:31:25.588Z,101797.63
2022-12-17T03:34:10.995Z,101784.59
2022-12-17T03:36:56.150Z,101795.13
2022-12-17T03:39:41.335Z,101788.22
2022-12-17T03:42:26.604Z,101793.41
2022-12-17T03:45:11.880Z,101793.41
2022-12-17T03:47:56.867Z,101791.72
2022-12-17T03:50:42.180Z,101779.59
2022-12-17T03:53:27.259Z,101790.91
2022-12-17T03:56:12.432Z,101797.00
2022-12-17T03:58:57.617Z,101796.13
2022-12-17T04:01:43.458Z,101798.72
2022-12-17T04:04:28.749Z,101802.22
2022-12-17T04:07:13.831Z,101801.41
2022-12-17T04:09:59.537Z,101815.34
2022-12-17T04:12:44.650Z,101810.13
2022-12-17T04:15:30.026Z,101816.25
2022-12-17T04:18:15.408Z,101818.03
2022-12-17T04:21:00.405Z,101813.63
2022-12-17T04:23:45.673Z,101818.03
2022-12-17T04:26:30.872Z,101814.63
2022-12-17T04:29:16.071Z,101808.53
2022-12-17T04:32:01.282Z,101811.13
2022-12-17T04:34:46.555Z,101818.03
2022-12-17T04:37:31.784Z,101814.63
2022-12-17T04:40:16.961Z,101816.34
2022-12-17T04:43:02.299Z,101821.47
2022-12-17T04:45:47.389Z,101816.06
2022-12-17T04:48:32.479Z,101815.34
2022-12-17T04:51:17.576Z,101815.34
2022-12-17T04:54:02.850Z,101816.16
2022-12-17T04:56:48.009Z,101821.28
2022-12-17T04:59:33.093Z,101827.41
2022-12-17T05:02:18.455Z,101831.72
2022-12-17T05:05:03.740Z,101836.91
2022-12-17T05:07:48.824Z,101822.88
2022-12-17T05:10:34.550Z,101831.72
2022-12-17T05:13:20.732Z,101832.50
2022-12-17T05:16:06.507Z,101837.63
2022-12-17T05:18:51.616Z,101828.91
2022-12-17T05:21:36.814Z,101835.84
2022-12-17T05:24:22.281Z,101840.16
2022-12-17T05:27:07.374Z,101838.34
2022-12-17T05:29:52.715Z,101837.34
2022-12-17T05:32:37.816Z,101839.94
2022-12-17T05:35:23.597Z,101838.19
2022-12-17T05:38:08.682Z,101846.00
2022-12-17T05:40:53.936Z,101840.69
2022-12-17T05:43:39.460Z,101846.78
2022-12-17T05:46:24.765Z,101857.91
2022-12-17T05:49:10.048Z,101850.03
2022-12-17T05:51:55.162Z,101850.94
2022-12-17T05:54:40.462Z,101854.22
2022-12-17T05:57:25.546Z,101853.44
2022-12-17T06:00:10.782Z,101856.94
2022-12-17T06:02:56.089Z,101861.34
2022-12-17T06:05:41.335Z,101868.25
2022-12-17T06:08:28.297Z,101870.88
2022-12-17T06:11:17.215Z,101878.06
2022-12-17T06:14:02.909Z,101884.88
2022-12-17T06:16:48.236Z,101895.28
2022-12-17T06:19:33.399Z,101899.59
2022-12-17T06:22:19.645Z,101909.13
2022-12-17T06:25:04.822Z,101904.81
2022-12-17T06:27:50.155Z,101903.91
2022-12-17T06:30:35.433Z,101907.53
2022-12-17T06:33:26.335Z,101911.81
2022-12-17T06:36:21.327Z,101908.44
2022-12-17T06:39:07.503Z,101910.13
2022-12-17T06:41:52.589Z,101909.31
2022-12-17T06:44:37.878Z,101912.72
2022-12-17T06:47:22.957Z,101918.94
2022-12-17T06:50:08.147Z,101917.94
2022-12-17T06:52:53.519Z,101924.97
2022-12-17T06:55:38.681Z,101915.34
2022-12-17T06:58:24.274Z,101924.97
2022-12-17T07:01:10.050Z,101928.25
2022-12-17T07:03:55.368Z,101943.09
2022-12-17T07:06:40.963Z,101950.81
2022-12-17T07:09:26.196Z,101951.53
2022-12-17T07:12:11.511Z,101952.44
2022-12-17T07:14:56.717Z,101954.03
2022-12-17T07:17:42.248Z,101959.25
2022-12-17T07:20:28.460Z,101967.06
2022-12-17T07:23:16.631Z,101967.88
2022-12-17T07:26:01.976Z,101980.09
2022-12-17T07:28:47.091Z,101982.69
2022-12-17T07:31:32.597Z,101985.28
2022-12-17T07:34:17.739Z,101991.41
2022-12-17T07:37:03.019Z,102002.72
2022-12-17T07:39:48.242Z,101994.13
2022-12-17T07:42:33.575Z,101997.53
2022-12-17T07:45:18.725Z,102005.44
2022-12-17T07:48:12.066Z,102015.06
2022-12-17T07:50:57.241Z,102010.72
2022-12-17T07:53:42.354Z,102013.44
2022-12-17T07:56:27.555Z,102021.38
2022-12-17T07:59:12.702Z,102014.44
2022-12-17T08:01:58.124Z,102024.16
2022-12-17T08:04:43.261Z,102019.94
2022-12-17T08:07:28.464Z,102023.63
2022-12-17T08:10:13.424Z,102026.31
2022-12-17T08:12:58.457Z,102028.13
2022-12-17T08:15:43.619Z,102031.81
2022-12-17T08:18:29.082Z,102038.03
2022-12-17T08:21:14.336Z,102045.97
2022-12-17T08:23:59.806Z,102052.16
2022-12-17T08:26:48.111Z,102048.03
2022-12-17T08:29:34.404Z,102047.22
2022-12-17T08:32:19.522Z,102051.75
2022-12-17T08:35:04.630Z,102050.91
2022-12-17T08:37:49.732Z,102053.72
2022-12-17T08:40:35.017Z,102061.72
2022-12-17T08:43:20.296Z,102060.94
2022-12-17T08:46:11.018Z,102058.59
2022-12-17T08:48:57.333Z,102071.72
2022-12-17T08:51:43.096Z,102071.13
2022-12-17T08:54:28.859Z,102073.91
2022-12-17T08:57:22.618Z,102075.78
2022-12-17T09:00:16.321Z,102076.91
2022-12-17T09:03:01.651Z,102070.16
2022-12-17T09:05:46.974Z,102068.63
2022-12-17T09:08:32.057Z,102080.16
2022-12-17T09:11:20.196Z,102077.81
2022-12-17T09:14:05.497Z,102077.94
2022-12-17T09:16:50.626Z,102084.03
2022-12-17T09:19:35.794Z,102084.31
2022-12-17T09:22:20.988Z,102083.59
2022-12-17T09:25:06.185Z,102098.63
2022-12-17T09:27:51.254Z,102085.56
2022-12-17T09:30:36.559Z,102083.19
2022-12-17T09:33:21.832Z,102091.06
2022-12-17T09:36:06.968Z,102095.38
2022-12-17T09:38:52.116Z,102094.47
2022-12-17T09:42:01.036Z,102091.00
2022-12-17T09:45:18.385Z,102093.50
2022-12-17T09:48:39.258Z,102082.06
2022-12-17T09:51:24.473Z,102097.72
2022-12-17T09:54:11.515Z,102091.00
2022-12-17T09:56:59.206Z,102103.59
2022-12-17T09:59:54.576Z,102105.56
2022-12-17T10:02:45.126Z,102103.13
2022-12-17T10:05:44.735Z,102114.41
2022-12-17T10:08:34.828Z,102119.53
2022-12-17T10:11:37.819Z,102128.88
2022-12-17T10:14:46.821Z,102126.91
2022-12-17T10:17:37.635Z,102125.72
2022-12-17T10:20:37.428Z,102125.50
2022-12-17T10:23:22.847Z,102124.38
2022-12-17T10:26:15.499Z,102122.34
2022-12-17T10:29:00.539Z,102134.22
2022-12-17T10:31:48.964Z,102138.25
2022-12-17T10:34:39.108Z,102128.44
2022-12-17T10:37:25.312Z,102129.88
2022-12-17T10:40:19.679Z,102129.56
2022-12-17T10:43:06.015Z,102130.88
2022-12-17T10:45:54.266Z,102130.53
2022-12-17T10:48:49.639Z,102125.94
2022-12-17T10:51:55.958Z,102124.63
2022-12-17T10:54:53.491Z,102139.97
2022-12-17T10:57:58.860Z,102136.06
2022-12-17T11:00:58.952Z,102126.97
2022-12-17T11:04:08.661Z,102133.59
2022-12-17T11:06:59.540Z,102118.47
2022-12-17T11:10:10.459Z,102127.00
2022-12-17T11:13:04.911Z,102129.41
2022-12-17T11:16:11.074Z,102130.09
2022-12-17T11:19:30.090Z,102132.59
2022-12-17T11:22:21.451Z,102136.03
2022-12-17T11:25:56.714Z,102132.50
2022-12-17T11:28:48.307Z,102139.63
2022-12-17T11:32:03.427Z,102133.19
2022-12-17T11:35:04.598Z,102135.28
2022-12-17T11:38:30.450Z,102132.38
2022-12-17T11:41:42.583Z,102134.16
2022-12-17T11:44:47.275Z,102143.75
2022-12-17T11:48:13.271Z,102140.28
2022-12-17T11:51:12.751Z,102140.88
2022-12-17T11:54:24.166Z,102135.50
2022-12-17T11:57:27.315Z,102131.75
2022-12-17T12:00:25.671Z,102131.41
2022-12-17T12:03:23.929Z,102133.56
2022-12-17T12:06:17.289Z,102132.31
2022-12-17T12:09:27.019Z,102132.78
2022-12-17T12:12:31.060Z,102126.13
2022-12-17T12:15:33.547Z,102135.41
2022-12-17T12:18:53.288Z,102121.88
2022-12-17T12:21:57.091Z,102133.78
2022-12-17T12:25:04.475Z,102131.53
2022-12-17T12:28:26.368Z,102124.84
2022-12-17T12:31:42.095Z,102133.03
2022-12-17T12:34:39.859Z,102122.75
2022-12-17T12:37:26.692Z,102136.19
2022-12-17T12:40:46.495Z,102137.34
2022-12-17T12:44:09.176Z,102133.03
2022-12-17T12:47:11.901Z,102134.72
2022-12-17T12:50:13.051Z,102135.53
2022-12-17T12:52:58.763Z,102144.91
2022-12-17T12:55:57.271Z,102143.00
2022-12-17T12:58:51.581Z,102137.63
2022-12-17T13:01:38.687Z,102139.91
2022-12-17T13:04:52.086Z,102137.19
2022-12-17T13:07:29.330Z,102129.25
2022-12-17T13:09:58.812Z,102135.38
2022-12-17T13:13:20.391Z,102131.97
2022-12-17T13:15:53.415Z,102139.69
2022-12-17T13:18:40.950Z,102130.16
2022-12-17T13:21:17.177Z,102141.50
2022-12-17T13:23:44.316Z,102136.13
2022-12-17T13:26:21.780Z,102138.78
2022-12-17T13:29:02.269Z,102136.13
2022-12-17T13:32:03.766Z,102152.59
2022-12-17T13:34:57.836Z,102140.22
2022-12-17T13:37:45.195Z,102147.09
2022-12-17T13:41:10.181Z,102140.88
2022-12-17T13:43:58.855Z,102161.69
2022-12-17T13:46:48.052Z,102162.41
2022-12-17T13:49:29.854Z,102163.31
2022-12-17T13:52:17.538Z,102171.25
2022-12-17T13:54:44.823Z,102165.91
2022-12-17T13:57:25.269Z,102161.59
2022-12-17T13:59:54.533Z,102165.13
2022-12-17T14:02:31.897Z,102156.47
2022-12-17T14:05:08.001Z,102166.81
2022-12-17T14:07:39.043Z,102178.06
2022-12-17T14:10:15.454Z,102171.94
2022-12-17T14:12:42.447Z,102167.56
2022-12-17T14:15:28.130Z,102171.94
2022-12-17T14:17:56.719Z,102182.22
2022-12-17T14:20:26.620Z,102177.00
2022-12-17T14:23:03.910Z,102189.03
2022-12-17T14:25:39.480Z,102182.03
2022-12-17T14:28:38.428Z,102198.34
2022-12-17T14:31:29.810Z,102188.53
2022-12-17T14:34:10.839Z,102188.16
2022-12-17T14:36:41.148Z,102192.28
2022-12-17T14:39:33.056Z,102185.00
2022-12-17T14:42:44.870Z,102191.75
2022-12-17T14:45:14.537Z,102200.88
2022-12-17T14:48:01.738Z,102203.22
2022-12-17T14:50:35.391Z,102193.28
2022-12-17T14:53:23.945Z,102209.56
2022-12-17T14:55:58.499Z,102198.78
2022-12-17T14:58:27.591Z,102204.63
2022-12-17T15:01:16.198Z,102203.50
2022-12-17T15:03:46.592Z,102202.41
2022-12-17T15:06:20.216Z,102195.03
2022-12-17T15:08:49.322Z,102203.47
2022-12-17T15:11:22.022Z,102201.38
2022-12-17T15:13:52.952Z,102201.88
2022-12-17T15:16:23.294Z,102201.59
2022-12-17T15:18:50.212Z,102200.50
2022-12-17T15:21:18.459Z,102205.31
2022-12-17T15:23:46.950Z,102200.81
2022-12-17T15:26:15.140Z,102211.84
2022-12-17T15:28:42.801Z,102210.75
2022-12-17T15:31:12.627Z,102207.94
2022-12-17T15:33:40.644Z,102210.25
2022-12-17T15:36:09.185Z,102209.16
2022-12-17T15:38:36.333Z,102208.97
2022-12-17T15:41:25.586Z,102215.75
2022-12-17T15:43:52.807Z,102218.00
2022-12-17T15:46:19.676Z,102218.59
2022-12-17T15:48:50.190Z,102228.78
2022-12-17T15:51:19.942Z,102224.97
2022-12-17T15:53:48.180Z,102222.97
2022-12-17T15:56:21.990Z,102222.78
2022-12-17T15:58:48.800Z,102231.19
2022-12-17T16:01:15.868Z,102218.78
2022-12-17T16:03:42.785Z,102220.16
2022-12-17T16:06:10.353Z,102222.59
2022-12-17T16:08:40.788Z,102230.16
2022-12-17T16:11:09.940Z,102229.97
2022-12-17T16:13:38.468Z,102247.88
2022-12-17T16:16:06.942Z,102235.66
2022-12-17T16:18:33.982Z,102237.94
2022-12-17T16:21:08.809Z,102237.94
2022-12-17T16:23:36.597Z,102241.16
2022-12-17T16:26:06.648Z,102240.06
2022-12-17T16:28:35.454Z,102244.16
2022-12-17T16:31:07.703Z,102244.81
2022-12-17T16:33:36.939Z,102245.41
2022-12-17T16:36:06.012Z,102246.91
2022-12-17T16:38:33.620Z,102253.69
2022-12-17T16:41:03.261Z,102237.88
2022-12-17T16:43:34.062Z,102245.50
2022-12-17T16:46:01.441Z,102247.84
2022-12-17T16:48:28.273Z,102248.56
2022-12-17T16:50:55.091Z,102247.47
2022-12-17T16:53:22.050Z,102257.75
2022-12-17T16:55:49.948Z,102257.44
2022-12-17T16:58:17.815Z,102263.34
2022-12-17T17:00:46.078Z,102256.19
2022-12-17T17:03:13.350Z,102269.78
2022-12-17T17:05:40.425Z,102261.00
2022-12-17T17:08:07.230Z,102267.78
2022-12-17T17:10:36.741Z,102259.06
2022-12-17T17:13:04.183Z,102259.78
2022-12-17T17:15:31.601Z,102268.34
2022-12-17T17:18:01.434Z,102265.56
2022-12-17T17:20:32.127Z,102277.66
2022-12-17T17:22:59.572Z,102273.94
2022-12-17T17:25:43.954Z,102273.81
2022-12-17T17:28:13.705Z,102277.00
2022-12-17T17:30:40.501Z,102273.28
2022-12-17T17:33:07.263Z,102274.72
2022-12-17T17:35:34.038Z,102277.91
2022-12-17T17:38:00.886Z,102285.63
2022-12-17T17:40:27.710Z,102283.69
2022-12-17T17:42:54.479Z,102286.19
2022-12-17T17:45:21.286Z,102288.56
2022-12-17T17:47:48.046Z,102283.16
2022-12-17T17:50:14.827Z,102283.84
2022-12-17T17:52:41.601Z,102294.91
2022-12-17T17:55:08.467Z,102305.09
2022-12-17T17:57:35.233Z,102299.66
2022-12-17T18:00:02.725Z,102304.63
2022-12-17T18:02:29.664Z,102301.13
2022-12-17T18:04:56.601Z,102295.59
2022-12-17T18:07:26.091Z,102301.56
2022-12-17T18:09:54.479Z,102309.16
2022-12-17T18:12:40.248Z,102311.41
2022-12-17T18:15:16.809Z,102311.19
2022-12-17T18:17:51.166Z,102313.47
2022-12-17T18:20:18.788Z,102321.91
2022-12-17T18:22:46.124Z,102330.41
2022-12-17T18:25:13.373Z,102322.38
2022-12-17T18:27:40.144Z,102331.75
2022-12-17T18:30:08.269Z,102335.81
2022-12-17T18:32:35.016Z,102330.50
2022-12-17T18:35:01.822Z,102331.97
2022-12-17T18:37:28.601Z,102334.34
2022-12-17T18:39:55.366Z,102327.47
2022-12-17T18:42:40.618Z,102330.63
2022-12-17T18:45:07.922Z,102335.56
2022-12-17T18:47:34.666Z,102342.34
2022-12-17T18:50:01.439Z,102345.72
2022-12-17T18:52:28.215Z,102351.69
2022-12-17T18:54:54.979Z,102360.25
2022-12-17T18:57:21.797Z,102354.97
2022-12-17T18:59:49.176Z,102359.25
2022-12-17T19:02:16.092Z,102360.81
2022-12-17T19:04:43.202Z,102358.78
2022-12-17T19:07:10.418Z,102356.97
2022-12-17T19:09:39.418Z,102358.56
2022-12-17T19:12:08.429Z,102355.84
2022-12-17T19:14:35.303Z,102371.41
2022-12-17T19:17:03.024Z,102364.19
2022-12-17T19:19:29.793Z,102362.38
2022-12-17T19:21:58.573Z,102371.63
2022-12-17T19:24:25.481Z,102381.09
2022-12-17T19:26:52.611Z,102383.31
2022-12-17T19:29:20.796Z,102389.28
2022-12-17T19:31:47.870Z,102384.91
2022-12-17T19:34:17.200Z,102382.06
2022-12-17T19:36:45.119Z,102381.06
2022-12-17T19:39:18.652Z,102385.22
2022-12-17T19:41:45.954Z,102379.66
2022-12-17T19:44:15.854Z,102380.56
2022-12-17T19:46:43.447Z,102378.66
2022-12-17T19:49:15.400Z,102376.72
2022-12-17T19:51:44.177Z,102373.09
2022-12-17T19:54:13.747Z,102371.97
2022-12-17T19:56:40.556Z,102375.22
2022-12-17T19:59:09.910Z,102381.16
2022-12-17T20:01:45.292Z,102382.75
2022-12-17T20:04:14.618Z,102390.28
2022-12-17T20:06:41.974Z,102379.81
2022-12-17T20:09:08.968Z,102377.84
2022-12-17T20:11:36.449Z,102386.53
2022-12-17T20:14:12.095Z,102376.84
2022-12-17T20:16:50.685Z,102381.13
2022-12-17T20:19:26.887Z,102385.28
2022-12-17T20:21:55.443Z,102388.53
2022-12-17T20:24:28.853Z,102393.72
2022-12-17T20:26:57.766Z,102388.31
2022-12-17T20:29:25.385Z,102391.69
2022-12-17T20:31:53.554Z,102383.78
2022-12-17T20:34:20.726Z,102396.63
2022-12-17T20:36:47.624Z,102392.09
2022-12-17T20:39:14.431Z,102390.19
2022-12-17T20:41:41.803Z,102389.91
2022-12-17T20:44:13.175Z,102394.09
2022-12-17T20:46:43.646Z,102397.31
2022-12-17T20:49:12.289Z,102391.91
2022-12-17T20:51:39.109Z,102392.44
2022-12-17T20:54:08.175Z,102399.16
2022-12-17T20:56:35.587Z,102397.13
2022-12-17T20:59:08.608Z,102412.56
2022-12-17T21:01:36.838Z,102413.09
2022-12-17T21:04:07.267Z,102425.94
2022-12-17T21:06:47.110Z,102425.69
2022-12-17T21:09:15.962Z,102440.06
2022-12-17T21:11:42.735Z,102434.63
2022-12-17T21:14:13.932Z,102436.22
2022-12-17T21:16:42.230Z,102442.94
2022-12-17T21:19:12.901Z,102442.81
2022-12-17T21:21:39.690Z,102443.47
2022-12-17T21:24:08.155Z,102454.63
2022-12-17T21:26:38.815Z,102455.38
2022-12-17T21:29:07.887Z,102448.41
2022-12-17T21:31:41.366Z,102443.72
2022-12-17T21:34:12.855Z,102440.13
2022-12-17T21:36:40.037Z,102442.56
2022-12-17T21:39:09.425Z,102438.84
2022-12-17T21:41:40.036Z,102441.44
2022-12-17T21:44:12.722Z,102443.00
2022-12-17T21:46:40.581Z,102458.41
2022-12-17T21:49:07.423Z,102449.59
2022-12-17T21:51:34.515Z,102459.94
2022-12-17T21:54:08.181Z,102465.03
2022-12-17T21:56:35.954Z,102471.13
2022-12-17T21:59:02.745Z,102465.81
2022-12-17T22:01:33.016Z,102464.88
2022-12-17T22:04:04.125Z,102464.75
2022-12-17T22:06:35.770Z,102458.78
2022-12-17T22:09:18.801Z,102462.97
2022-12-17T22:12:14.776Z,102469.69
2022-12-17T22:14:41.604Z,102476.41
2022-12-17T22:17:08.422Z,102474.63
2022-12-17T22:19:35.249Z,102477.84
2022-12-17T22:22:02.003Z,102475.13
2022-12-17T22:24:29.344Z,102477.72
2022-12-17T22:27:02.661Z,102493.00
2022-12-17T22:29:47.829Z,102481.63
2022-12-17T22:32:33.726Z,102480.56
2022-12-17T22:36:24.402Z,102493.13
2022-12-17T22:40:57.018Z,102482.66
2022-12-17T22:44:34.957Z,102484.19
2022-12-17T22:44:41.942Z,102494.41
2022-12-17T22:46:16.572Z,102480.16
2022-12-17T22:48:43.610Z,102480.16
2022-12-17T22:51:15.157Z,102477.47
2022-12-17T22:53:53.803Z,102487.53
2022-12-17T22:56:49.450Z,102492.72
2022-12-17T22:59:15.230Z,102500.22
2022-12-17T23:01:42.034Z,102485.34
2022-12-17T23:04:13.543Z,102482.63
2022-12-17T23:06:41.488Z,102491.03
2022-12-17T23:09:08.260Z,102494.41
2022-12-17T23:11:35.176Z,102484.66
2022-12-17T23:14:01.933Z,102485.47
2022-12-17T23:16:28.870Z,102486.25
2022-12-17T23:18:55.863Z,102467.97
2022-12-17T23:21:26.211Z,102473.81
2022-12-17T23:23:54.209Z,102470.16
2022-12-17T23:26:24.865Z,102471.75
2022-12-17T23:29:01.685Z,102476.00
2022-12-17T23:31:33.691Z,102478.19
2022-12-17T23:34:00.533Z,102472.88
2022-12-17T23:36:28.032Z,102477.03
2022-12-17T23:38:56.292Z,102482.97
2022-12-17T23:41:27.127Z,102488.00
2022-12-17T23:43:55.247Z,102492.16
2022-12-17T23:46:23.949Z,102480.75
2022-12-17T23:48:51.378Z,102485.78
2022-12-17T23:51:20.897Z,102476.22
2022-12-17T23:53:48.113Z,102481.91
2022-12-17T23:56:23.806Z,102492.13
2022-12-17T23:58:57.483Z,102488.47
